sensor_id;sensor_type;location;lat;lon;timestamp;P1;durP1;ratioP1;P2;durP2;ratioP2
55224;SDS011;41091;49.400;8.684;2024-03-08T00:00:29;16.50;;;10.73;;
55224;SDS011;41091;49.400;8.684;2024-03-08T00:02:57;21.08;;;13.32;;
55224;SDS011;41091;49.400;8.684;2024-03-08T00:05:26;21.95;;;12.40;;
55224;SDS011;41091;49.400;8.684;2024-03-08T00:07:51;18.33;;;11.43;;
55224;SDS011;41091;49.400;8.684;2024-03-08T00:10:16;18.75;;;11.77;;
55224;SDS011;41091;49.400;8.684;2024-03-08T00:12:43;21.08;;;11.05;;
55224;SDS011;41091;49.400;8.684;2024-03-08T00:15:10;16.98;;;11.27;;
55224;SDS011;41091;49.400;8.684;2024-03-08T00:17:39;17.93;;;11.47;;
55224;SDS011;41091;49.400;8.684;2024-03-08T00:20:05;18.60;;;11.70;;
55224;SDS011;41091;49.400;8.684;2024-03-08T00:22:33;16.88;;;10.82;;
55224;SDS011;41091;49.400;8.684;2024-03-08T00:25:02;18.17;;;12.63;;
55224;SDS011;41091;49.400;8.684;2024-03-08T00:27:30;20.75;;;11.68;;
55224;SDS011;41091;49.400;8.684;2024-03-08T00:30:00;18.48;;;12.23;;
55224;SDS011;41091;49.400;8.684;2024-03-08T00:32:26;19.15;;;11.45;;
55224;SDS011;41091;49.400;8.684;2024-03-08T00:34:56;16.40;;;11.30;;
55224;SDS011;41091;49.400;8.684;2024-03-08T00:37:22;18.48;;;12.13;;
55224;SDS011;41091;49.400;8.684;2024-03-08T00:39:52;21.35;;;12.02;;
55224;SDS011;41091;49.400;8.684;2024-03-08T00:42:18;17.10;;;12.50;;
55224;SDS011;41091;49.400;8.684;2024-03-08T00:44:44;21.17;;;13.00;;
55224;SDS011;41091;49.400;8.684;2024-03-08T00:47:09;17.27;;;11.88;;
55224;SDS011;41091;49.400;8.684;2024-03-08T00:49:35;17.00;;;11.77;;
55224;SDS011;41091;49.400;8.684;2024-03-08T00:52:06;24.75;;;12.70;;
55224;SDS011;41091;49.400;8.684;2024-03-08T00:54:32;22.20;;;11.43;;
55224;SDS011;41091;49.400;8.684;2024-03-08T00:57:00;19.23;;;11.75;;
55224;SDS011;41091;49.400;8.684;2024-03-08T00:59:27;20.75;;;12.57;;
55224;SDS011;41091;49.400;8.684;2024-03-08T01:01:53;20.38;;;11.73;;
55224;SDS011;41091;49.400;8.684;2024-03-08T01:04:21;20.55;;;13.10;;
55224;SDS011;41091;49.400;8.684;2024-03-08T01:06:50;16.38;;;11.73;;
55224;SDS011;41091;49.400;8.684;2024-03-08T01:09:16;22.20;;;12.63;;
55224;SDS011;41091;49.400;8.684;2024-03-08T01:11:44;15.85;;;11.98;;
55224;SDS011;41091;49.400;8.684;2024-03-08T01:14:12;28.38;;;13.18;;
55224;SDS011;41091;49.400;8.684;2024-03-08T01:16:39;17.45;;;11.93;;
55224;SDS011;41091;49.400;8.684;2024-03-08T01:19:05;21.80;;;12.18;;
55224;SDS011;41091;49.400;8.684;2024-03-08T01:21:30;20.05;;;12.45;;
55224;SDS011;41091;49.400;8.684;2024-03-08T01:23:55;18.60;;;12.60;;
55224;SDS011;41091;49.400;8.684;2024-03-08T01:26:21;18.88;;;12.02;;
55224;SDS011;41091;49.400;8.684;2024-03-08T01:28:46;23.02;;;13.23;;
55224;SDS011;41091;49.400;8.684;2024-03-08T01:31:11;20.45;;;13.00;;
55224;SDS011;41091;49.400;8.684;2024-03-08T01:33:38;21.92;;;13.63;;
55224;SDS011;41091;49.400;8.684;2024-03-08T01:36:05;22.95;;;12.63;;
55224;SDS011;41091;49.400;8.684;2024-03-08T01:38:30;22.80;;;12.20;;
55224;SDS011;41091;49.400;8.684;2024-03-08T01:40:56;20.75;;;11.95;;
55224;SDS011;41091;49.400;8.684;2024-03-08T01:45:48;27.42;;;12.27;;
55224;SDS011;41091;49.400;8.684;2024-03-08T01:48:14;22.15;;;12.65;;
55224;SDS011;41091;49.400;8.684;2024-03-08T01:50:42;21.15;;;12.80;;
55224;SDS011;41091;49.400;8.684;2024-03-08T01:53:07;20.02;;;12.07;;
55224;SDS011;41091;49.400;8.684;2024-03-08T01:55:42;21.42;;;12.25;;
55224;SDS011;41091;49.400;8.684;2024-03-08T01:58:12;21.25;;;12.93;;
55224;SDS011;41091;49.400;8.684;2024-03-08T02:00:42;17.80;;;11.57;;
55224;SDS011;41091;49.400;8.684;2024-03-08T02:03:11;19.25;;;11.63;;
55224;SDS011;41091;49.400;8.684;2024-03-08T02:05:40;21.20;;;12.07;;
55224;SDS011;41091;49.400;8.684;2024-03-08T02:08:08;16.75;;;11.07;;
55224;SDS011;41091;49.400;8.684;2024-03-08T02:10:38;18.85;;;11.00;;
55224;SDS011;41091;49.400;8.684;2024-03-08T02:13:03;24.88;;;12.20;;
55224;SDS011;41091;49.400;8.684;2024-03-08T02:18:19;17.48;;;11.05;;
55224;SDS011;41091;49.400;8.684;2024-03-08T02:20:46;19.35;;;11.10;;
55224;SDS011;41091;49.400;8.684;2024-03-08T02:23:18;19.75;;;11.10;;
55224;SDS011;41091;49.400;8.684;2024-03-08T02:25:44;18.08;;;12.07;;
55224;SDS011;41091;49.400;8.684;2024-03-08T02:28:15;20.10;;;11.13;;
55224;SDS011;41091;49.400;8.684;2024-03-08T02:30:44;19.13;;;11.15;;
55224;SDS011;41091;49.400;8.684;2024-03-08T02:33:12;19.00;;;11.15;;
55224;SDS011;41091;49.400;8.684;2024-03-08T02:35:39;17.88;;;11.75;;
55224;SDS011;41091;49.400;8.684;2024-03-08T02:38:05;23.15;;;12.52;;
55224;SDS011;41091;49.400;8.684;2024-03-08T02:40:30;20.27;;;11.60;;
55224;SDS011;41091;49.400;8.684;2024-03-08T02:42:55;14.45;;;10.57;;
55224;SDS011;41091;49.400;8.684;2024-03-08T02:45:23;20.70;;;11.05;;
55224;SDS011;41091;49.400;8.684;2024-03-08T02:47:49;15.57;;;10.82;;
55224;SDS011;41091;49.400;8.684;2024-03-08T02:50:15;16.52;;;10.80;;
55224;SDS011;41091;49.400;8.684;2024-03-08T02:52:43;16.50;;;11.48;;
55224;SDS011;41091;49.400;8.684;2024-03-08T02:55:08;15.43;;;9.90;;
55224;SDS011;41091;49.400;8.684;2024-03-08T02:57:35;20.08;;;11.98;;
55224;SDS011;41091;49.400;8.684;2024-03-08T03:00:01;22.50;;;12.20;;
55224;SDS011;41091;49.400;8.684;2024-03-08T03:02:29;19.95;;;11.13;;
55224;SDS011;41091;49.400;8.684;2024-03-08T03:04:55;20.83;;;11.60;;
55224;SDS011;41091;49.400;8.684;2024-03-08T03:07:21;18.25;;;11.40;;
55224;SDS011;41091;49.400;8.684;2024-03-08T03:09:48;20.27;;;11.93;;
55224;SDS011;41091;49.400;8.684;2024-03-08T03:12:14;18.10;;;10.85;;
55224;SDS011;41091;49.400;8.684;2024-03-08T03:14:43;17.23;;;11.25;;
55224;SDS011;41091;49.400;8.684;2024-03-08T03:17:08;17.77;;;11.85;;
55224;SDS011;41091;49.400;8.684;2024-03-08T03:19:35;20.52;;;11.07;;
55224;SDS011;41091;49.400;8.684;2024-03-08T03:22:01;23.33;;;12.38;;
55224;SDS011;41091;49.400;8.684;2024-03-08T03:24:30;23.50;;;13.23;;
55224;SDS011;41091;49.400;8.684;2024-03-08T03:27:00;18.27;;;11.55;;
55224;SDS011;41091;49.400;8.684;2024-03-08T03:29:28;22.27;;;11.90;;
55224;SDS011;41091;49.400;8.684;2024-03-08T03:31:53;23.05;;;13.32;;
55224;SDS011;41091;49.400;8.684;2024-03-08T03:34:18;19.10;;;10.73;;
55224;SDS011;41091;49.400;8.684;2024-03-08T03:36:46;21.25;;;11.80;;
55224;SDS011;41091;49.400;8.684;2024-03-08T03:39:12;22.98;;;12.38;;
55224;SDS011;41091;49.400;8.684;2024-03-08T03:41:41;18.67;;;12.20;;
55224;SDS011;41091;49.400;8.684;2024-03-08T03:44:06;20.27;;;12.82;;
55224;SDS011;41091;49.400;8.684;2024-03-08T03:46:32;21.35;;;11.63;;
55224;SDS011;41091;49.400;8.684;2024-03-08T03:49:00;22.70;;;12.02;;
55224;SDS011;41091;49.400;8.684;2024-03-08T03:51:26;23.15;;;12.85;;
55224;SDS011;41091;49.400;8.684;2024-03-08T03:53:51;18.85;;;12.13;;
55224;SDS011;41091;49.400;8.684;2024-03-08T03:56:18;16.85;;;11.52;;
55224;SDS011;41091;49.400;8.684;2024-03-08T03:58:43;15.73;;;10.93;;
55224;SDS011;41091;49.400;8.684;2024-03-08T04:01:09;19.95;;;11.15;;
55224;SDS011;41091;49.400;8.684;2024-03-08T04:03:35;24.52;;;12.85;;
55224;SDS011;41091;49.400;8.684;2024-03-08T04:06:00;17.65;;;12.15;;
55224;SDS011;41091;49.400;8.684;2024-03-08T04:08:26;23.15;;;12.45;;
55224;SDS011;41091;49.400;8.684;2024-03-08T04:10:52;28.55;;;12.82;;
55224;SDS011;41091;49.400;8.684;2024-03-08T04:13:22;23.58;;;13.80;;
55224;SDS011;41091;49.400;8.684;2024-03-08T04:15:49;22.40;;;12.57;;
55224;SDS011;41091;49.400;8.684;2024-03-08T04:18:15;19.33;;;12.15;;
55224;SDS011;41091;49.400;8.684;2024-03-08T04:20:40;23.15;;;13.18;;
55224;SDS011;41091;49.400;8.684;2024-03-08T04:23:06;23.02;;;11.88;;
55224;SDS011;41091;49.400;8.684;2024-03-08T04:25:31;22.23;;;12.10;;
55224;SDS011;41091;49.400;8.684;2024-03-08T04:27:59;24.92;;;12.77;;
55224;SDS011;41091;49.400;8.684;2024-03-08T04:30:25;21.85;;;12.85;;
55224;SDS011;41091;49.400;8.684;2024-03-08T04:32:53;21.05;;;13.75;;
55224;SDS011;41091;49.400;8.684;2024-03-08T04:35:18;21.73;;;11.60;;
55224;SDS011;41091;49.400;8.684;2024-03-08T04:37:48;19.25;;;12.43;;
55224;SDS011;41091;49.400;8.684;2024-03-08T04:40:13;23.25;;;11.93;;
55224;SDS011;41091;49.400;8.684;2024-03-08T04:42:39;18.67;;;12.93;;
55224;SDS011;41091;49.400;8.684;2024-03-08T04:45:06;22.50;;;12.30;;
55224;SDS011;41091;49.400;8.684;2024-03-08T04:47:33;22.98;;;12.38;;
55224;SDS011;41091;49.400;8.684;2024-03-08T04:49:58;22.05;;;12.75;;
55224;SDS011;41091;49.400;8.684;2024-03-08T04:52:26;33.40;;;13.00;;
55224;SDS011;41091;49.400;8.684;2024-03-08T04:54:53;26.17;;;12.65;;
55224;SDS011;41091;49.400;8.684;2024-03-08T04:57:18;20.63;;;12.85;;
55224;SDS011;41091;49.400;8.684;2024-03-08T04:59:44;24.27;;;12.02;;
55224;SDS011;41091;49.400;8.684;2024-03-08T05:02:17;18.35;;;12.00;;
55224;SDS011;41091;49.400;8.684;2024-03-08T05:04:42;21.20;;;12.10;;
55224;SDS011;41091;49.400;8.684;2024-03-08T05:07:10;22.65;;;13.55;;
55224;SDS011;41091;49.400;8.684;2024-03-08T05:09:36;21.95;;;13.65;;
55224;SDS011;41091;49.400;8.684;2024-03-08T05:12:01;24.98;;;12.77;;
55224;SDS011;41091;49.400;8.684;2024-03-08T05:14:26;22.83;;;12.85;;
55224;SDS011;41091;49.400;8.684;2024-03-08T05:16:52;24.92;;;12.73;;
55224;SDS011;41091;49.400;8.684;2024-03-08T05:19:22;21.75;;;12.73;;
55224;SDS011;41091;49.400;8.684;2024-03-08T05:21:50;22.70;;;12.73;;
55224;SDS011;41091;49.400;8.684;2024-03-08T05:24:15;20.02;;;11.63;;
55224;SDS011;41091;49.400;8.684;2024-03-08T05:26:41;21.75;;;12.77;;
55224;SDS011;41091;49.400;8.684;2024-03-08T05:29:09;27.05;;;14.00;;
55224;SDS011;41091;49.400;8.684;2024-03-08T05:31:48;22.00;;;13.75;;
55224;SDS011;41091;49.400;8.684;2024-03-08T05:34:14;24.27;;;13.53;;
55224;SDS011;41091;49.400;8.684;2024-03-08T05:36:40;21.42;;;12.82;;
55224;SDS011;41091;49.400;8.684;2024-03-08T05:39:09;21.13;;;12.70;;
55224;SDS011;41091;49.400;8.684;2024-03-08T05:41:36;21.42;;;13.88;;
55224;SDS011;41091;49.400;8.684;2024-03-08T05:44:05;26.67;;;13.85;;
55224;SDS011;41091;49.400;8.684;2024-03-08T05:46:30;24.45;;;13.27;;
55224;SDS011;41091;49.400;8.684;2024-03-08T05:48:56;24.38;;;12.93;;
55224;SDS011;41091;49.400;8.684;2024-03-08T05:51:23;22.40;;;13.00;;
55224;SDS011;41091;49.400;8.684;2024-03-08T05:53:49;20.92;;;13.48;;
55224;SDS011;41091;49.400;8.684;2024-03-08T05:56:18;23.67;;;13.73;;
55224;SDS011;41091;49.400;8.684;2024-03-08T05:58:46;25.63;;;13.63;;
55224;SDS011;41091;49.400;8.684;2024-03-08T06:01:11;27.67;;;14.63;;
55224;SDS011;41091;49.400;8.684;2024-03-08T06:03:37;25.35;;;13.60;;
55224;SDS011;41091;49.400;8.684;2024-03-08T06:06:12;21.73;;;13.30;;
55224;SDS011;41091;49.400;8.684;2024-03-08T06:08:37;29.05;;;14.32;;
55224;SDS011;41091;49.400;8.684;2024-03-08T06:11:07;24.40;;;13.32;;
55224;SDS011;41091;49.400;8.684;2024-03-08T06:13:33;23.70;;;13.60;;
55224;SDS011;41091;49.400;8.684;2024-03-08T06:15:59;22.92;;;12.27;;
55224;SDS011;41091;49.400;8.684;2024-03-08T06:18:25;27.55;;;13.68;;
55224;SDS011;41091;49.400;8.684;2024-03-08T06:20:53;23.67;;;14.60;;
55224;SDS011;41091;49.400;8.684;2024-03-08T06:23:18;25.15;;;13.80;;
55224;SDS011;41091;49.400;8.684;2024-03-08T06:25:46;25.05;;;13.07;;
55224;SDS011;41091;49.400;8.684;2024-03-08T06:28:12;21.13;;;14.15;;
55224;SDS011;41091;49.400;8.684;2024-03-08T06:30:39;21.95;;;13.70;;
55224;SDS011;41091;49.400;8.684;2024-03-08T06:33:04;20.33;;;12.50;;
55224;SDS011;41091;49.400;8.684;2024-03-08T06:35:30;24.63;;;14.55;;
55224;SDS011;41091;49.400;8.684;2024-03-08T06:37:57;22.30;;;13.35;;
55224;SDS011;41091;49.400;8.684;2024-03-08T06:40:22;21.27;;;13.10;;
55224;SDS011;41091;49.400;8.684;2024-03-08T06:42:48;26.60;;;13.15;;
55224;SDS011;41091;49.400;8.684;2024-03-08T06:45:13;25.70;;;13.98;;
55224;SDS011;41091;49.400;8.684;2024-03-08T06:47:45;24.63;;;14.98;;
55224;SDS011;41091;49.400;8.684;2024-03-08T06:50:10;24.48;;;14.05;;
55224;SDS011;41091;49.400;8.684;2024-03-08T06:52:36;23.10;;;13.77;;
55224;SDS011;41091;49.400;8.684;2024-03-08T06:55:01;21.00;;;13.50;;
55224;SDS011;41091;49.400;8.684;2024-03-08T06:57:30;24.48;;;14.00;;
55224;SDS011;41091;49.400;8.684;2024-03-08T06:59:56;25.35;;;13.95;;
55224;SDS011;41091;49.400;8.684;2024-03-08T07:02:23;26.45;;;13.80;;
55224;SDS011;41091;49.400;8.684;2024-03-08T07:04:52;23.45;;;13.15;;
55224;SDS011;41091;49.400;8.684;2024-03-08T07:07:18;22.95;;;14.13;;
55224;SDS011;41091;49.400;8.684;2024-03-08T07:09:45;25.02;;;15.32;;
55224;SDS011;41091;49.400;8.684;2024-03-08T07:12:14;24.48;;;14.70;;
55224;SDS011;41091;49.400;8.684;2024-03-08T07:14:39;28.95;;;15.95;;
55224;SDS011;41091;49.400;8.684;2024-03-08T07:17:10;24.05;;;15.20;;
55224;SDS011;41091;49.400;8.684;2024-03-08T07:19:36;25.58;;;15.40;;
55224;SDS011;41091;49.400;8.684;2024-03-08T07:22:03;23.05;;;14.20;;
55224;SDS011;41091;49.400;8.684;2024-03-08T07:24:31;26.15;;;14.25;;
55224;SDS011;41091;49.400;8.684;2024-03-08T07:27:16;26.33;;;14.13;;
55224;SDS011;41091;49.400;8.684;2024-03-08T07:29:42;32.00;;;13.65;;
55224;SDS011;41091;49.400;8.684;2024-03-08T07:32:07;24.33;;;13.63;;
55224;SDS011;41091;49.400;8.684;2024-03-08T07:34:50;23.98;;;14.10;;
55224;SDS011;41091;49.400;8.684;2024-03-08T07:37:18;22.17;;;13.25;;
55224;SDS011;41091;49.400;8.684;2024-03-08T07:39:46;23.73;;;13.63;;
55224;SDS011;41091;49.400;8.684;2024-03-08T07:42:14;26.55;;;13.90;;
55224;SDS011;41091;49.400;8.684;2024-03-08T07:44:39;23.17;;;13.82;;
55224;SDS011;41091;49.400;8.684;2024-03-08T07:47:05;28.98;;;15.23;;
55224;SDS011;41091;49.400;8.684;2024-03-08T07:49:36;22.40;;;14.13;;
55224;SDS011;41091;49.400;8.684;2024-03-08T07:52:05;47.05;;;21.98;;
55224;SDS011;41091;49.400;8.684;2024-03-08T07:54:34;24.38;;;13.73;;
55224;SDS011;41091;49.400;8.684;2024-03-08T07:57:02;24.40;;;13.45;;
55224;SDS011;41091;49.400;8.684;2024-03-08T07:59:28;27.60;;;15.05;;
55224;SDS011;41091;49.400;8.684;2024-03-08T08:01:54;28.13;;;15.35;;
55224;SDS011;41091;49.400;8.684;2024-03-08T08:04:19;26.52;;;15.30;;
55224;SDS011;41091;49.400;8.684;2024-03-08T08:06:49;25.92;;;14.73;;
55224;SDS011;41091;49.400;8.684;2024-03-08T08:09:16;25.45;;;13.18;;
55224;SDS011;41091;49.400;8.684;2024-03-08T08:11:47;22.58;;;14.05;;
55224;SDS011;41091;49.400;8.684;2024-03-08T08:14:12;27.42;;;14.68;;
55224;SDS011;41091;49.400;8.684;2024-03-08T08:16:38;25.30;;;14.02;;
55224;SDS011;41091;49.400;8.684;2024-03-08T08:19:06;27.00;;;14.73;;
55224;SDS011;41091;49.400;8.684;2024-03-08T08:21:33;22.83;;;14.23;;
55224;SDS011;41091;49.400;8.684;2024-03-08T08:24:02;22.70;;;12.95;;
55224;SDS011;41091;49.400;8.684;2024-03-08T08:26:28;24.55;;;12.95;;
55224;SDS011;41091;49.400;8.684;2024-03-08T08:28:54;27.38;;;15.18;;
55224;SDS011;41091;49.400;8.684;2024-03-08T08:31:19;24.40;;;14.40;;
55224;SDS011;41091;49.400;8.684;2024-03-08T08:33:47;28.05;;;14.00;;
55224;SDS011;41091;49.400;8.684;2024-03-08T08:36:14;26.88;;;13.25;;
55224;SDS011;41091;49.400;8.684;2024-03-08T08:38:39;23.67;;;13.68;;
55224;SDS011;41091;49.400;8.684;2024-03-08T08:41:08;24.08;;;13.77;;
55224;SDS011;41091;49.400;8.684;2024-03-08T08:43:37;23.33;;;13.57;;
55224;SDS011;41091;49.400;8.684;2024-03-08T08:46:08;23.55;;;15.05;;
55224;SDS011;41091;49.400;8.684;2024-03-08T08:48:34;24.00;;;14.38;;
55224;SDS011;41091;49.400;8.684;2024-03-08T08:51:00;21.42;;;13.88;;
55224;SDS011;41091;49.400;8.684;2024-03-08T08:53:25;24.30;;;14.20;;
55224;SDS011;41091;49.400;8.684;2024-03-08T08:55:53;20.40;;;14.05;;
55224;SDS011;41091;49.400;8.684;2024-03-08T08:58:18;19.65;;;13.05;;
55224;SDS011;41091;49.400;8.684;2024-03-08T09:00:46;22.98;;;13.15;;
55224;SDS011;41091;49.400;8.684;2024-03-08T09:03:12;26.67;;;13.07;;
55224;SDS011;41091;49.400;8.684;2024-03-08T09:05:37;18.45;;;12.00;;
55224;SDS011;41091;49.400;8.684;2024-03-08T09:08:02;26.90;;;13.50;;
55224;SDS011;41091;49.400;8.684;2024-03-08T09:10:28;22.05;;;13.23;;
55224;SDS011;41091;49.400;8.684;2024-03-08T09:12:53;22.15;;;12.15;;
55224;SDS011;41091;49.400;8.684;2024-03-08T09:15:19;20.13;;;12.38;;
55224;SDS011;41091;49.400;8.684;2024-03-08T09:17:47;19.85;;;13.15;;
55224;SDS011;41091;49.400;8.684;2024-03-08T09:20:13;18.83;;;11.80;;
55224;SDS011;41091;49.400;8.684;2024-03-08T09:22:40;17.75;;;11.52;;
55224;SDS011;41091;49.400;8.684;2024-03-08T09:25:05;25.02;;;13.10;;
55224;SDS011;41091;49.400;8.684;2024-03-08T09:27:32;23.98;;;12.68;;
55224;SDS011;41091;49.400;8.684;2024-03-08T09:29:59;24.40;;;13.48;;
55224;SDS011;41091;49.400;8.684;2024-03-08T09:32:26;19.08;;;11.80;;
55224;SDS011;41091;49.400;8.684;2024-03-08T09:34:52;20.38;;;11.98;;
55224;SDS011;41091;49.400;8.684;2024-03-08T09:37:17;17.77;;;11.90;;
55224;SDS011;41091;49.400;8.684;2024-03-08T09:39:43;17.45;;;10.98;;
55224;SDS011;41091;49.400;8.684;2024-03-08T09:42:09;21.20;;;12.45;;
55224;SDS011;41091;49.400;8.684;2024-03-08T09:44:35;22.98;;;13.15;;
55224;SDS011;41091;49.400;8.684;2024-03-08T09:47:01;18.80;;;11.10;;
55224;SDS011;41091;49.400;8.684;2024-03-08T09:49:29;18.30;;;11.55;;
55224;SDS011;41091;49.400;8.684;2024-03-08T09:51:55;22.00;;;10.93;;
55224;SDS011;41091;49.400;8.684;2024-03-08T09:54:21;20.85;;;11.35;;
55224;SDS011;41091;49.400;8.684;2024-03-08T09:56:47;19.50;;;12.40;;
55224;SDS011;41091;49.400;8.684;2024-03-08T09:59:14;20.33;;;11.35;;
55224;SDS011;41091;49.400;8.684;2024-03-08T10:02:00;22.90;;;11.65;;
55224;SDS011;41091;49.400;8.684;2024-03-08T10:04:28;16.17;;;10.40;;
55224;SDS011;41091;49.400;8.684;2024-03-08T10:06:55;14.93;;;9.90;;
55224;SDS011;41091;49.400;8.684;2024-03-08T10:09:24;14.27;;;10.63;;
55224;SDS011;41091;49.400;8.684;2024-03-08T10:11:52;15.93;;;10.70;;
55224;SDS011;41091;49.400;8.684;2024-03-08T10:14:23;16.50;;;11.13;;
55224;SDS011;41091;49.400;8.684;2024-03-08T10:16:48;20.73;;;12.20;;
55224;SDS011;41091;49.400;8.684;2024-03-08T10:19:14;15.75;;;11.00;;
55224;SDS011;41091;49.400;8.684;2024-03-08T10:21:51;16.67;;;11.50;;
55224;SDS011;41091;49.400;8.684;2024-03-08T10:24:21;17.85;;;10.82;;
55224;SDS011;41091;49.400;8.684;2024-03-08T10:27:10;15.32;;;10.30;;
55224;SDS011;41091;49.400;8.684;2024-03-08T10:29:35;16.60;;;10.43;;
55224;SDS011;41091;49.400;8.684;2024-03-08T10:32:08;16.67;;;10.02;;
55224;SDS011;41091;49.400;8.684;2024-03-08T10:34:36;16.73;;;10.57;;
55224;SDS011;41091;49.400;8.684;2024-03-08T10:37:05;18.70;;;11.40;;
55224;SDS011;41091;49.400;8.684;2024-03-08T10:39:36;14.27;;;10.05;;
55224;SDS011;41091;49.400;8.684;2024-03-08T10:42:04;13.27;;;10.02;;
55224;SDS011;41091;49.400;8.684;2024-03-08T10:49:42;15.82;;;11.18;;
55224;SDS011;41091;49.400;8.684;2024-03-08T10:52:11;19.65;;;11.82;;
55224;SDS011;41091;49.400;8.684;2024-03-08T10:54:37;16.02;;;10.85;;
55224;SDS011;41091;49.400;8.684;2024-03-08T10:57:06;17.55;;;11.52;;
55224;SDS011;41091;49.400;8.684;2024-03-08T10:59:33;15.02;;;11.07;;
55224;SDS011;41091;49.400;8.684;2024-03-08T11:02:00;18.00;;;12.15;;
55224;SDS011;41091;49.400;8.684;2024-03-08T11:04:28;14.63;;;10.48;;
55224;SDS011;41091;49.400;8.684;2024-03-08T11:07:00;16.55;;;11.18;;
55224;SDS011;41091;49.400;8.684;2024-03-08T11:09:31;17.02;;;11.75;;
55224;SDS011;41091;49.400;8.684;2024-03-08T11:17:45;14.48;;;10.52;;
55224;SDS011;41091;49.400;8.684;2024-03-08T11:20:14;14.80;;;10.75;;
55224;SDS011;41091;49.400;8.684;2024-03-08T11:22:49;17.45;;;11.23;;
55224;SDS011;41091;49.400;8.684;2024-03-08T11:28:12;17.10;;;9.82;;
55224;SDS011;41091;49.400;8.684;2024-03-08T11:30:43;15.57;;;11.15;;
55224;SDS011;41091;49.400;8.684;2024-03-08T11:33:13;16.33;;;10.65;;
55224;SDS011;41091;49.400;8.684;2024-03-08T11:35:39;17.13;;;10.82;;
55224;SDS011;41091;49.400;8.684;2024-03-08T11:38:07;15.63;;;10.63;;
55224;SDS011;41091;49.400;8.684;2024-03-08T11:43:00;18.73;;;9.68;;
55224;SDS011;41091;49.400;8.684;2024-03-08T11:45:28;17.08;;;11.18;;
55224;SDS011;41091;49.400;8.684;2024-03-08T11:48:01;16.33;;;10.85;;
55224;SDS011;41091;49.400;8.684;2024-03-08T11:50:28;17.40;;;11.65;;
55224;SDS011;41091;49.400;8.684;2024-03-08T11:52:59;15.75;;;11.15;;
55224;SDS011;41091;49.400;8.684;2024-03-08T11:55:25;14.23;;;10.85;;
55224;SDS011;41091;49.400;8.684;2024-03-08T11:57:58;15.10;;;10.25;;
55224;SDS011;41091;49.400;8.684;2024-03-08T12:00:26;15.77;;;10.75;;
55224;SDS011;41091;49.400;8.684;2024-03-08T12:03:06;16.30;;;12.02;;
55224;SDS011;41091;49.400;8.684;2024-03-08T12:05:32;17.58;;;10.68;;
55224;SDS011;41091;49.400;8.684;2024-03-08T12:07:58;15.10;;;10.93;;
55224;SDS011;41091;49.400;8.684;2024-03-08T12:10:24;20.35;;;12.68;;
55224;SDS011;41091;49.400;8.684;2024-03-08T12:12:53;18.02;;;10.88;;
55224;SDS011;41091;49.400;8.684;2024-03-08T12:15:20;14.48;;;10.82;;
55224;SDS011;41091;49.400;8.684;2024-03-08T12:17:48;15.07;;;10.43;;
55224;SDS011;41091;49.400;8.684;2024-03-08T12:20:21;14.80;;;10.82;;
55224;SDS011;41091;49.400;8.684;2024-03-08T12:22:50;15.85;;;10.93;;
55224;SDS011;41091;49.400;8.684;2024-03-08T12:25:18;16.38;;;11.30;;
55224;SDS011;41091;49.400;8.684;2024-03-08T12:27:44;14.07;;;10.60;;
55224;SDS011;41091;49.400;8.684;2024-03-08T12:30:19;15.55;;;11.18;;
55224;SDS011;41091;49.400;8.684;2024-03-08T12:32:50;15.80;;;11.10;;
55224;SDS011;41091;49.400;8.684;2024-03-08T12:35:18;12.70;;;9.68;;
55224;SDS011;41091;49.400;8.684;2024-03-08T12:37:47;14.43;;;11.23;;
55224;SDS011;41091;49.400;8.684;2024-03-08T12:40:14;13.90;;;10.48;;
55224;SDS011;41091;49.400;8.684;2024-03-08T12:42:41;16.90;;;11.60;;
55224;SDS011;41091;49.400;8.684;2024-03-08T12:45:08;21.13;;;11.98;;
55224;SDS011;41091;49.400;8.684;2024-03-08T12:47:35;17.67;;;11.88;;
55224;SDS011;41091;49.400;8.684;2024-03-08T12:50:09;20.55;;;12.35;;
55224;SDS011;41091;49.400;8.684;2024-03-08T12:52:35;16.35;;;11.48;;
55224;SDS011;41091;49.400;8.684;2024-03-08T12:55:03;16.90;;;12.60;;
55224;SDS011;41091;49.400;8.684;2024-03-08T12:57:32;16.10;;;10.80;;
55224;SDS011;41091;49.400;8.684;2024-03-08T12:59:59;16.08;;;10.85;;
55224;SDS011;41091;49.400;8.684;2024-03-08T13:02:24;17.10;;;11.70;;
55224;SDS011;41091;49.400;8.684;2024-03-08T13:04:51;16.00;;;11.82;;
55224;SDS011;41091;49.400;8.684;2024-03-08T13:07:22;13.25;;;10.48;;
55224;SDS011;41091;49.400;8.684;2024-03-08T13:09:53;16.85;;;11.63;;
55224;SDS011;41091;49.400;8.684;2024-03-08T13:12:22;19.75;;;10.82;;
55224;SDS011;41091;49.400;8.684;2024-03-08T13:14:48;14.82;;;11.45;;
55224;SDS011;41091;49.400;8.684;2024-03-08T13:17:16;16.27;;;11.15;;
55224;SDS011;41091;49.400;8.684;2024-03-08T13:19:44;17.60;;;10.82;;
55224;SDS011;41091;49.400;8.684;2024-03-08T13:22:12;14.93;;;10.75;;
55224;SDS011;41091;49.400;8.684;2024-03-08T13:24:38;16.25;;;11.20;;
55224;SDS011;41091;49.400;8.684;2024-03-08T13:27:10;14.75;;;11.45;;
55224;SDS011;41091;49.400;8.684;2024-03-08T13:29:48;20.98;;;12.52;;
55224;SDS011;41091;49.400;8.684;2024-03-08T13:32:15;16.77;;;11.23;;
55224;SDS011;41091;49.400;8.684;2024-03-08T13:34:45;16.80;;;10.95;;
55224;SDS011;41091;49.400;8.684;2024-03-08T13:37:14;17.85;;;11.27;;
55224;SDS011;41091;49.400;8.684;2024-03-08T13:39:43;15.95;;;11.30;;
55224;SDS011;41091;49.400;8.684;2024-03-08T13:42:13;21.98;;;12.10;;
55224;SDS011;41091;49.400;8.684;2024-03-08T13:44:43;16.73;;;11.30;;
55224;SDS011;41091;49.400;8.684;2024-03-08T13:47:08;21.13;;;12.20;;
55224;SDS011;41091;49.400;8.684;2024-03-08T13:49:34;18.10;;;12.05;;
55224;SDS011;41091;49.400;8.684;2024-03-08T13:51:59;17.70;;;12.20;;
55224;SDS011;41091;49.400;8.684;2024-03-08T13:54:25;19.80;;;11.57;;
55224;SDS011;41091;49.400;8.684;2024-03-08T13:56:52;17.77;;;11.35;;
55224;SDS011;41091;49.400;8.684;2024-03-08T13:59:22;20.63;;;12.00;;
55224;SDS011;41091;49.400;8.684;2024-03-08T14:01:48;24.35;;;11.50;;
55224;SDS011;41091;49.400;8.684;2024-03-08T14:04:16;16.58;;;10.38;;
55224;SDS011;41091;49.400;8.684;2024-03-08T14:06:47;16.98;;;11.68;;
55224;SDS011;41091;49.400;8.684;2024-03-08T14:09:14;21.77;;;10.80;;
55224;SDS011;41091;49.400;8.684;2024-03-08T14:11:45;16.48;;;11.18;;
55224;SDS011;41091;49.400;8.684;2024-03-08T14:14:11;28.05;;;10.50;;
55224;SDS011;41091;49.400;8.684;2024-03-08T14:16:45;16.42;;;9.85;;
55224;SDS011;41091;49.400;8.684;2024-03-08T14:19:10;21.88;;;11.75;;
55224;SDS011;41091;49.400;8.684;2024-03-08T14:21:36;15.18;;;10.77;;
55224;SDS011;41091;49.400;8.684;2024-03-08T14:24:04;14.65;;;10.18;;
55224;SDS011;41091;49.400;8.684;2024-03-08T14:26:29;19.58;;;12.07;;
55224;SDS011;41091;49.400;8.684;2024-03-08T14:28:57;17.13;;;11.05;;
55224;SDS011;41091;49.400;8.684;2024-03-08T14:31:22;18.83;;;10.60;;
55224;SDS011;41091;49.400;8.684;2024-03-08T14:33:50;18.27;;;11.23;;
55224;SDS011;41091;49.400;8.684;2024-03-08T14:36:16;16.23;;;10.00;;
55224;SDS011;41091;49.400;8.684;2024-03-08T14:38:44;18.60;;;11.13;;
55224;SDS011;41091;49.400;8.684;2024-03-08T14:41:14;16.13;;;11.25;;
55224;SDS011;41091;49.400;8.684;2024-03-08T14:43:42;20.50;;;12.65;;